createdAt,value
2022-09-09T00:01:57.874Z,11.78
2022-09-09T00:13:57.891Z,11.76
2022-09-09T00:25:57.879Z,11.74
2022-09-09T00:37:57.897Z,11.74
2022-09-09T00:50:01.152Z,11.72
2022-09-09T01:01:57.924Z,11.71
2022-09-09T01:13:57.894Z,11.69
2022-09-09T01:25:58.312Z,11.68
2022-09-09T01:37:57.880Z,11.67
2022-09-09T01:49:57.891Z,11.65
2022-09-09T02:01:57.937Z,11.62
2022-09-09T02:13:57.878Z,11.62
2022-09-09T02:25:57.874Z,11.61
2022-09-09T02:37:57.879Z,11.59
2022-09-09T02:49:58.197Z,11.58
2022-09-09T03:01:57.947Z,11.57
2022-09-09T03:13:57.880Z,11.56
2022-09-09T03:25:57.848Z,11.54
2022-09-09T03:37:57.852Z,11.51
2022-09-09T03:49:57.879Z,11.51
2022-09-09T04:01:57.909Z,11.50
2022-09-09T04:13:57.890Z,11.48
2022-09-09T04:25:57.827Z,11.46
2022-09-09T04:37:57.868Z,11.46
2022-09-09T04:49:57.909Z,11.44
2022-09-09T05:01:57.938Z,11.43
2022-09-09T05:13:57.866Z,11.42
2022-09-09T05:25:57.866Z,11.40
2022-09-09T05:37:57.885Z,11.40
2022-09-09T05:49:57.902Z,11.40
2022-09-09T06:01:58.025Z,11.39
2022-09-09T06:13:57.830Z,11.38
2022-09-09T06:25:58.709Z,11.39
2022-09-09T06:37:57.889Z,11.39
2022-09-09T06:49:59.507Z,11.40
2022-09-09T07:01:57.937Z,11.53
2022-09-09T07:13:57.914Z,11.50
2022-09-09T07:25:57.918Z,11.66
2022-09-09T07:37:57.932Z,11.72
2022-09-09T07:49:57.912Z,11.70
2022-09-09T08:01:57.974Z,11.78
2022-09-09T08:14:02.232Z,11.80
2022-09-09T08:25:57.933Z,11.91
2022-09-09T08:37:57.875Z,11.95
2022-09-09T08:49:57.932Z,12.01
2022-09-09T09:01:58.042Z,12.08
2022-09-09T09:13:57.876Z,12.24
2022-09-09T09:25:57.869Z,12.15
2022-09-09T09:49:57.889Z,12.38
2022-09-09T10:01:57.888Z,12.47
2022-09-09T10:13:57.869Z,12.50
2022-09-09T10:25:57.867Z,12.48
2022-09-09T10:37:57.886Z,12.59
2022-09-09T10:49:57.866Z,12.60
2022-09-09T11:01:57.873Z,12.62
2022-09-09T11:13:57.887Z,12.62
2022-09-09T11:25:57.854Z,12.62
2022-09-09T11:37:57.866Z,12.62
2022-09-09T11:49:58.307Z,12.62
2022-09-09T12:01:58.193Z,12.62
2022-09-09T12:13:57.862Z,12.60
2022-09-09T12:25:57.889Z,12.62
2022-09-09T12:37:57.895Z,12.62
2022-09-09T12:49:57.902Z,12.62
2022-09-09T13:01:57.976Z,12.60
2022-09-09T13:13:57.834Z,12.62
2022-09-09T13:25:57.860Z,12.62
2022-09-09T13:37:57.872Z,12.60
2022-09-09T13:49:57.888Z,12.61
2022-09-09T14:01:57.933Z,12.60
2022-09-09T14:13:57.880Z,12.60
2022-09-09T14:25:57.893Z,12.58
2022-09-09T14:37:57.889Z,12.56
2022-09-09T14:49:57.892Z,12.54
2022-09-09T15:01:57.868Z,12.51
2022-09-09T15:13:58.099Z,12.50
2022-09-09T15:25:57.851Z,12.49
2022-09-09T15:37:57.883Z,12.48
2022-09-09T15:49:57.910Z,12.48
2022-09-09T16:01:57.950Z,12.48
2022-09-09T16:13:57.860Z,12.48
2022-09-09T16:26:00.442Z,12.47
2022-09-09T16:37:57.842Z,12.45
2022-09-09T16:49:57.878Z,12.44
2022-09-09T17:01:58.016Z,12.42
2022-09-09T17:13:57.857Z,12.40
2022-09-09T17:25:57.873Z,12.38
2022-09-09T17:37:57.881Z,12.37
2022-09-09T17:49:58.359Z,12.35
2022-09-09T18:01:58.024Z,12.33
2022-09-09T18:13:57.883Z,12.32
2022-09-09T18:25:57.872Z,12.30
2022-09-09T18:37:57.875Z,12.28
2022-09-09T18:49:57.900Z,12.26
2022-09-09T19:01:57.985Z,12.25
2022-09-09T19:13:57.875Z,12.24
2022-09-09T19:25:57.872Z,12.21
2022-09-09T19:37:57.883Z,12.21
2022-09-09T19:49:58.100Z,12.19
2022-09-09T20:01:57.948Z,12.17
2022-09-09T20:13:57.875Z,12.15
2022-09-09T20:25:58.182Z,12.14
2022-09-09T20:37:57.863Z,12.13
2022-09-09T20:49:57.892Z,12.11
2022-09-09T21:01:58.025Z,12.10
2022-09-09T21:13:57.871Z,12.08
2022-09-09T21:25:57.865Z,12.06
2022-09-09T21:37:57.911Z,12.05
2022-09-09T21:49:58.046Z,12.04
2022-09-09T22:01:57.993Z,12.02
2022-09-09T22:13:57.871Z,12.01
2022-09-09T22:25:57.897Z,11.99
2022-09-09T22:37:57.885Z,11.97
2022-09-09T22:49:58.057Z,11.96
2022-09-09T23:01:57.889Z,11.94
2022-09-09T23:13:57.853Z,11.93
2022-09-09T23:25:57.885Z,11.92
2022-09-09T23:37:57.877Z,11.90
2022-09-09T23:49:57.909Z,11.89
